Olancha, CA (93549)

10:13 PM PDT on April 25, 2015 (GMT -0700)
Alabama Hills | | Change Station
CLOSE
Current Station
Personal Weather Station
Location: Lone Pine, CA
Elevation: 4590 ft
Nearby Weather Stations

Elev 4590 ft 36.57 °N, 118.10 °W | Updated 14 seconds ago

Mostly Cloudy
Mostly Cloudy
51.4 °F
Feels Like 51.4 °F
N
14.3
Wind Variable Wind from WNW
Gusts 15.0 mph

Today
High -- | Low -- °F
--% Chance of Precip.
Yesterday
High -- | Low -- °F
Precip. -- in
6:06 AM 7:34 PM
First Quarter, 52% visible
Pressure 29.79 in
Visibility 10.0 miles
Clouds Clear
Dew Point 23 °F
Humidity 33%
Rainfall 0.00 in
Snow Depth Not available.
UV 0.0 out of 12
Pollen 7.00 out of 12
Air Quality Not available.
Flu Activity Sporadic
METAR KNID 260456Z AUTO 28020G28KT 10SM CLR 16/M01 A2981 RMK AO2 PK WND 28028/0448 SLP086 T01561011 $

More Conditions Fewer Conditions

Pressure 29.79 in
Visibility 10.0 miles
Clouds Clear
Dew Point 23 °F
Humidity 33%
Rainfall 0.00 in
Snow Depth Not available.
UV 0.0 out of 12
Pollen 7.00 out of 12
Air Quality Not available.
Flu Activity Sporadic
METAR KNID 260456Z AUTO 28020G28KT 10SM CLR 16/M01 A2981 RMK AO2 PK WND 28028/0448 SLP086 T01561011 $

More Conditions Fewer Conditions

The full scope of the disaster following a powerful 7.8-magnitude earthquake in Nepal may not come into view for days, but global charities are already sending emergency aid. Click to see how you can help.

10-Day Weather Forecast

Almanac

Astronomy

Apr. 25, 2015 Rise Set
Actual Time
Civil Twilight
Nautical Twilight
Astronomical Twilight
Moon
Length of Visible Light
Length of Day
Tomorrow will be .
, % of the Moon is Illuminated

Today's Extremes

State Highs State Lows

Community

WunderPhotos

Upload Photos

1,816,942 photos uploaded!

WunderBlogs® & News

Nearby

Air Quality

  Air Quality AQ Index Pollutant
Not available.

Snow Depth

Station Depth Elevation

Earthquake Activity

City Distance Mag. Time & Date
Minimum magnitude displayed is 2.5.

Coastal Water Temperatures

Place Temperature

Stations

Nearby Weather Stations

Station Location Temp. Windchill Dew Point Humidity Wind Precip. Elev Updated Type